createdAt,value
2022-08-21T00:01:53.003Z,16.66
2022-08-21T00:04:22.390Z,16.67
2022-08-21T00:06:50.817Z,16.70
2022-08-21T00:09:18.736Z,16.66
2022-08-21T00:11:48.615Z,16.68
2022-08-21T00:14:16.947Z,16.74
2022-08-21T00:16:45.107Z,16.73
2022-08-21T00:19:13.185Z,16.81
2022-08-21T00:21:41.188Z,16.79
2022-08-21T00:24:12.473Z,16.89
2022-08-21T00:26:40.332Z,16.92
2022-08-21T00:29:09.528Z,16.92
2022-08-21T00:31:37.486Z,16.93
2022-08-21T00:34:05.595Z,16.93
2022-08-21T00:36:33.504Z,16.81
2022-08-21T00:39:02.012Z,16.81
2022-08-21T00:41:37.196Z,16.77
2022-08-21T00:44:06.218Z,16.78
2022-08-21T00:46:35.781Z,16.75
2022-08-21T00:49:03.713Z,16.77
2022-08-21T00:51:38.510Z,16.76
2022-08-21T00:54:06.688Z,16.75
2022-08-21T00:56:41.339Z,16.76
2022-08-21T00:59:11.935Z,16.77
2022-08-21T01:01:41.397Z,16.79
2022-08-21T01:04:09.579Z,16.74
2022-08-21T01:06:37.478Z,16.80
2022-08-21T01:09:05.741Z,16.77
2022-08-21T01:11:33.650Z,16.77
2022-08-21T01:14:02.015Z,16.78
2022-08-21T01:16:30.689Z,16.75
2022-08-21T01:19:00.097Z,16.73
2022-08-21T01:21:29.616Z,16.74
2022-08-21T01:23:58.455Z,16.73
2022-08-21T01:26:34.081Z,16.65
2022-08-21T01:29:07.279Z,16.63
2022-08-21T01:31:35.254Z,16.65
2022-08-21T01:34:03.161Z,16.60
2022-08-21T01:36:32.481Z,16.54
2022-08-21T01:39:00.551Z,16.53
2022-08-21T01:41:28.468Z,16.50
2022-08-21T01:43:56.450Z,16.47
2022-08-21T01:46:24.614Z,16.44
2022-08-21T01:48:52.560Z,16.34
2022-08-21T01:51:20.484Z,16.28
2022-08-21T01:53:50.178Z,16.23
2022-08-21T01:56:18.473Z,16.18
2022-08-21T01:58:47.707Z,16.16
2022-08-21T02:01:16.074Z,16.10
2022-08-21T02:03:44.374Z,16.11
2022-08-21T02:06:16.061Z,16.04
2022-08-21T02:08:43.979Z,16.06
2022-08-21T02:11:13.291Z,16.06
2022-08-21T02:13:41.508Z,16.03
2022-08-21T02:16:10.006Z,15.95
2022-08-21T02:18:37.920Z,15.95
2022-08-21T02:21:06.732Z,15.94
2022-08-21T02:23:34.843Z,15.91
2022-08-21T02:26:03.357Z,15.88
2022-08-21T02:28:33.203Z,15.84
2022-08-21T02:31:01.106Z,15.77
2022-08-21T02:33:29.391Z,15.78
2022-08-21T02:35:57.766Z,15.75
2022-08-21T02:38:31.038Z,15.76
2022-08-21T02:40:59.433Z,15.74
2022-08-21T02:43:28.723Z,15.74
2022-08-21T02:45:59.313Z,15.73
2022-08-21T02:48:28.652Z,15.67
2022-08-21T02:50:57.719Z,15.64
2022-08-21T02:53:25.827Z,15.58
2022-08-21T02:55:54.663Z,15.60
2022-08-21T02:58:24.362Z,15.54
2022-08-21T03:00:52.837Z,15.53
2022-08-21T03:03:22.397Z,15.51
2022-08-21T03:05:50.379Z,15.51
2022-08-21T03:08:18.761Z,15.51
2022-08-21T03:10:47.775Z,15.48
2022-08-21T03:13:16.425Z,15.45
2022-08-21T03:15:44.408Z,15.46
2022-08-21T03:18:13.043Z,15.42
2022-08-21T03:20:43.177Z,15.41
2022-08-21T03:23:14.150Z,15.35
2022-08-21T03:25:42.709Z,15.38
2022-08-21T03:28:13.205Z,15.37
2022-08-21T03:30:41.903Z,15.38
2022-08-21T03:33:12.301Z,15.35
2022-08-21T03:35:44.672Z,15.35
2022-08-21T03:38:13.747Z,15.32
2022-08-21T03:40:41.696Z,15.27
2022-08-21T03:43:10.878Z,15.22
2022-08-21T03:45:39.451Z,15.23
2022-08-21T03:48:08.028Z,15.21
2022-08-21T03:50:40.870Z,15.20
2022-08-21T03:53:17.367Z,15.17
2022-08-21T03:55:46.791Z,15.11
2022-08-21T03:58:16.140Z,15.07
2022-08-21T04:00:45.003Z,15.07
2022-08-21T04:03:13.003Z,15.02
2022-08-21T04:05:41.998Z,15.00
2022-08-21T04:08:11.349Z,15.00
2022-08-21T04:10:40.354Z,15.00
2022-08-21T04:13:08.958Z,14.97
2022-08-21T04:15:37.424Z,14.95
2022-08-21T04:18:05.768Z,14.92
2022-08-21T04:20:34.187Z,14.93
2022-08-21T04:23:02.107Z,14.92
2022-08-21T04:25:31.757Z,14.89
2022-08-21T04:27:59.647Z,14.91
2022-08-21T04:30:28.868Z,14.87
2022-08-21T04:32:58.123Z,14.85
2022-08-21T04:35:27.328Z,14.87
2022-08-21T04:37:55.412Z,14.82
2022-08-21T04:40:24.738Z,14.77
2022-08-21T04:42:56.745Z,14.82
2022-08-21T04:45:26.291Z,14.80
2022-08-21T04:47:55.237Z,14.79
2022-08-21T04:50:24.748Z,14.79
2022-08-21T04:52:52.666Z,14.77
2022-08-21T04:55:21.215Z,14.71
2022-08-21T04:57:50.572Z,14.75
2022-08-21T05:00:20.185Z,14.73
2022-08-21T05:02:49.355Z,14.71
2022-08-21T05:05:17.561Z,14.74
2022-08-21T05:07:46.836Z,14.74
2022-08-21T05:10:15.570Z,14.79
2022-08-21T05:12:44.201Z,14.81
2022-08-21T05:15:13.612Z,14.81
2022-08-21T05:17:43.264Z,14.77
2022-08-21T05:20:11.865Z,14.79
2022-08-21T05:22:39.820Z,14.81
2022-08-21T05:25:10.438Z,14.82
2022-08-21T05:27:39.066Z,14.81
2022-08-21T05:30:08.598Z,14.82
2022-08-21T05:32:36.682Z,14.83
2022-08-21T05:35:06.220Z,14.85
2022-08-21T05:37:34.371Z,14.86
2022-08-21T05:40:20.414Z,14.93
2022-08-21T05:42:56.008Z,15.00
2022-08-21T05:45:42.656Z,15.03
2022-08-21T05:48:12.765Z,15.08
2022-08-21T05:50:42.618Z,15.15
2022-08-21T05:53:11.667Z,15.22
2022-08-21T05:55:45.237Z,15.24
2022-08-21T05:58:14.513Z,15.19
2022-08-21T06:00:42.501Z,15.27
2022-08-21T06:03:12.883Z,15.33
2022-08-21T06:05:42.228Z,15.32
2022-08-21T06:08:10.197Z,15.40
2022-08-21T06:10:38.241Z,15.41
2022-08-21T06:13:06.392Z,15.48
2022-08-21T06:15:34.223Z,15.46
2022-08-21T06:18:02.219Z,15.48
2022-08-21T06:20:30.659Z,15.47
2022-08-21T06:23:00.271Z,15.47
2022-08-21T06:25:28.270Z,15.48
2022-08-21T06:28:02.215Z,15.49
2022-08-21T06:30:30.145Z,15.57
2022-08-21T06:32:58.741Z,15.62
2022-08-21T06:35:26.840Z,15.62
2022-08-21T06:37:54.702Z,15.60
2022-08-21T06:40:24.010Z,15.67
2022-08-21T06:42:53.055Z,15.66
2022-08-21T06:45:21.394Z,15.73
2022-08-21T06:47:49.304Z,15.71
2022-08-21T06:50:17.266Z,15.77
2022-08-21T06:52:45.197Z,15.76
2022-08-21T06:55:13.235Z,15.81
2022-08-21T06:57:52.427Z,15.82
2022-08-21T07:00:20.917Z,15.84
2022-08-21T07:02:48.880Z,15.82
2022-08-21T07:05:18.462Z,15.84
2022-08-21T07:07:46.920Z,15.85
2022-08-21T07:10:22.202Z,15.86
2022-08-21T07:12:59.510Z,15.85
2022-08-21T07:15:29.279Z,15.94
2022-08-21T07:17:58.529Z,16.01
2022-08-21T07:20:26.903Z,16.11
2022-08-21T07:22:54.959Z,16.10
2022-08-21T07:25:23.101Z,16.21
2022-08-21T07:27:52.349Z,16.32
2022-08-21T07:30:20.339Z,16.55
2022-08-21T07:32:50.367Z,16.72
2022-08-21T07:35:18.444Z,16.86
2022-08-21T07:37:46.491Z,16.95
2022-08-21T07:40:14.691Z,17.07
2022-08-21T07:42:43.251Z,17.05
2022-08-21T07:45:12.917Z,17.08
2022-08-21T07:47:42.090Z,17.05
2022-08-21T07:50:12.348Z,17.08
2022-08-21T07:52:40.987Z,17.11
2022-08-21T07:55:09.579Z,17.04
2022-08-21T07:57:37.506Z,17.11
2022-08-21T08:00:06.499Z,17.18
2022-08-21T08:02:35.843Z,17.22
2022-08-21T08:05:04.755Z,17.25
2022-08-21T08:07:32.993Z,17.35
2022-08-21T08:10:00.886Z,17.44
2022-08-21T08:12:30.663Z,17.57
2022-08-21T08:14:59.064Z,17.54
2022-08-21T08:17:27.489Z,17.71
2022-08-21T08:19:56.821Z,17.77
2022-08-21T08:22:25.655Z,17.75
2022-08-21T08:24:53.853Z,17.83
2022-08-21T08:27:21.971Z,17.88
2022-08-21T08:29:50.080Z,17.92
2022-08-21T08:32:18.082Z,17.98
2022-08-21T08:34:47.877Z,18.08
2022-08-21T08:37:17.444Z,18.14
2022-08-21T08:39:45.998Z,18.16
2022-08-21T08:42:32.200Z,18.21
2022-08-21T08:45:03.011Z,18.26
2022-08-21T08:47:32.163Z,18.31
2022-08-21T08:50:03.504Z,18.31
2022-08-21T08:52:34.991Z,18.25
2022-08-21T08:55:05.798Z,18.30
2022-08-21T08:57:34.263Z,18.25
2022-08-21T09:00:03.202Z,18.17
2022-08-21T09:02:31.229Z,18.10
2022-08-21T09:04:59.288Z,18.08
2022-08-21T09:07:33.379Z,18.10
2022-08-21T09:10:07.072Z,18.19
2022-08-21T09:12:40.283Z,18.26
2022-08-21T09:15:12.224Z,18.32
2022-08-21T09:17:52.642Z,18.43
2022-08-21T09:20:25.517Z,18.51
2022-08-21T09:23:00.856Z,18.55
2022-08-21T09:25:33.571Z,18.63
2022-08-21T09:28:01.477Z,18.75
2022-08-21T09:30:30.811Z,18.84
2022-08-21T09:32:58.842Z,18.94
2022-08-21T09:35:27.033Z,19.03
2022-08-21T09:37:56.201Z,19.14
2022-08-21T09:40:34.119Z,19.21
2022-08-21T09:43:03.307Z,19.30
2022-08-21T09:45:34.003Z,19.39
2022-08-21T09:48:12.145Z,19.34
2022-08-21T09:50:40.060Z,19.37
2022-08-21T09:53:16.768Z,19.41
2022-08-21T09:56:08.697Z,19.37
2022-08-21T09:58:38.407Z,19.31
2022-08-21T10:01:07.524Z,19.34
2022-08-21T10:03:35.778Z,19.41
2022-08-21T10:06:09.295Z,19.45
2022-08-21T10:08:38.926Z,19.55
2022-08-21T10:11:09.200Z,19.63
2022-08-21T10:13:46.656Z,19.77
2022-08-21T10:16:23.624Z,19.92
2022-08-21T10:18:57.142Z,20.01
2022-08-21T10:21:26.033Z,20.09
2022-08-21T10:23:59.474Z,20.17
2022-08-21T10:26:33.849Z,20.29
2022-08-21T10:29:05.316Z,20.44
2022-08-21T10:31:39.804Z,20.52
2022-08-21T10:34:15.107Z,20.60
2022-08-21T10:36:47.438Z,20.63
2022-08-21T10:39:35.084Z,20.60
2022-08-21T10:42:27.486Z,20.68
2022-08-21T10:45:02.435Z,20.75
2022-08-21T10:47:34.765Z,20.90
2022-08-21T10:50:07.666Z,20.95
2022-08-21T10:52:48.681Z,21.03
2022-08-21T10:55:18.024Z,21.05
2022-08-21T10:57:48.553Z,21.07
2022-08-21T11:00:19.484Z,21.10
2022-08-21T11:02:49.820Z,21.14
2022-08-21T11:05:20.023Z,21.21
2022-08-21T11:07:49.879Z,21.28
2022-08-21T11:10:21.755Z,21.28
2022-08-21T11:12:52.565Z,21.16
2022-08-21T11:15:38.265Z,21.13
2022-08-21T11:18:17.719Z,21.02
2022-08-21T11:20:48.786Z,21.14
2022-08-21T11:23:20.526Z,21.21
2022-08-21T11:25:51.453Z,21.25
2022-08-21T11:28:22.418Z,21.36
2022-08-21T11:31:00.146Z,21.44
2022-08-21T11:33:34.071Z,21.55
2022-08-21T11:36:05.788Z,21.64
2022-08-21T11:38:38.882Z,21.74
2022-08-21T11:41:14.865Z,21.85
2022-08-21T11:43:44.702Z,22.07
2022-08-21T11:46:18.560Z,22.24
2022-08-21T11:48:50.982Z,22.32
2022-08-21T11:51:23.174Z,22.34
2022-08-21T11:53:54.422Z,22.31
2022-08-21T11:56:24.532Z,22.27
2022-08-21T11:58:55.257Z,22.23
2022-08-21T12:01:27.507Z,22.18
2022-08-21T12:03:58.640Z,22.19
2022-08-21T12:06:31.466Z,22.20
2022-08-21T12:09:01.215Z,22.27
2022-08-21T12:11:30.863Z,22.33
2022-08-21T12:14:01.581Z,22.57
2022-08-21T12:16:33.077Z,22.70
2022-08-21T12:19:10.152Z,22.85
2022-08-21T12:21:50.225Z,22.87
2022-08-21T12:24:20.041Z,22.62
2022-08-21T12:26:52.039Z,22.38
2022-08-21T12:29:25.244Z,22.33
2022-08-21T12:31:55.474Z,21.91
2022-08-21T12:34:27.100Z,21.80
2022-08-21T12:36:58.802Z,21.69
2022-08-21T12:39:28.104Z,21.57
2022-08-21T12:42:02.551Z,21.28
2022-08-21T12:44:35.821Z,21.25
2022-08-21T12:47:05.631Z,21.34
2022-08-21T12:49:37.264Z,21.14
2022-08-21T12:52:11.442Z,21.11
2022-08-21T12:54:41.276Z,21.35
2022-08-21T12:57:10.764Z,21.57
2022-08-21T12:59:41.760Z,21.66
2022-08-21T13:02:17.923Z,21.99
2022-08-21T13:04:48.764Z,22.02
2022-08-21T13:07:19.131Z,22.12
2022-08-21T13:09:50.117Z,22.28
2022-08-21T13:12:18.998Z,22.05
2022-08-21T13:14:48.392Z,21.93
2022-08-21T13:17:23.147Z,21.72
2022-08-21T13:19:59.480Z,21.84
2022-08-21T13:22:34.122Z,22.09
2022-08-21T13:25:07.248Z,22.11
2022-08-21T13:27:36.195Z,22.02
2022-08-21T13:30:06.535Z,21.84
2022-08-21T13:32:37.085Z,21.82
2022-08-21T13:35:12.496Z,21.89
2022-08-21T13:37:41.748Z,21.98
2022-08-21T13:40:12.050Z,22.01
2022-08-21T13:42:42.160Z,22.04
2022-08-21T13:45:13.620Z,22.02
2022-08-21T13:47:41.700Z,21.94
2022-08-21T13:50:14.563Z,21.89
2022-08-21T13:52:50.668Z,21.81
2022-08-21T13:55:18.701Z,21.50
2022-08-21T13:57:46.705Z,21.02
2022-08-21T14:00:16.183Z,20.77
2022-08-21T14:02:45.917Z,20.61
2022-08-21T14:05:19.163Z,20.48
2022-08-21T14:07:48.129Z,20.49
2022-08-21T14:10:19.027Z,20.35
2022-08-21T14:12:50.065Z,20.16
2022-08-21T14:15:19.568Z,20.14
2022-08-21T14:17:47.769Z,20.15
2022-08-21T14:20:27.924Z,20.23
2022-08-21T14:22:58.379Z,20.10
2022-08-21T14:25:31.683Z,20.17
2022-08-21T14:28:01.204Z,20.10
2022-08-21T14:30:30.764Z,20.08
2022-08-21T14:32:59.120Z,19.91
2022-08-21T14:35:27.245Z,19.91
2022-08-21T14:37:55.407Z,19.88
2022-08-21T14:40:25.591Z,19.90
2022-08-21T14:42:54.269Z,19.85
2022-08-21T14:45:24.871Z,19.95
2022-08-21T14:47:56.257Z,19.92
2022-08-21T14:50:24.355Z,19.90
2022-08-21T14:52:56.180Z,19.74
2022-08-21T14:55:25.637Z,19.70
2022-08-21T14:57:54.681Z,19.70
2022-08-21T15:00:24.123Z,19.72
2022-08-21T15:03:03.501Z,19.61
2022-08-21T15:05:33.927Z,19.68
2022-08-21T15:08:02.253Z,19.63
2022-08-21T15:10:32.405Z,19.69
2022-08-21T15:13:00.532Z,19.81
2022-08-21T15:15:28.640Z,20.04
2022-08-21T15:17:56.601Z,20.11
2022-08-21T15:20:24.553Z,20.23
2022-08-21T15:22:52.911Z,20.36
2022-08-21T15:25:20.788Z,20.39
2022-08-21T15:27:50.229Z,20.33
2022-08-21T15:30:18.159Z,20.40
2022-08-21T15:32:46.205Z,20.29
2022-08-21T15:35:14.239Z,19.99
2022-08-21T15:37:42.327Z,19.95
2022-08-21T15:40:10.980Z,19.96
2022-08-21T15:42:40.423Z,19.87
2022-08-21T15:45:10.855Z,19.71
2022-08-21T15:47:39.882Z,19.66
2022-08-21T15:50:09.656Z,19.54
2022-08-21T15:52:37.594Z,19.43
2022-08-21T15:55:06.221Z,19.38
2022-08-21T15:57:34.255Z,19.31
2022-08-21T16:00:10.052Z,19.26
2022-08-21T16:02:39.832Z,19.24
2022-08-21T16:05:08.595Z,19.18
2022-08-21T16:07:36.552Z,19.11
2022-08-21T16:10:05.080Z,19.05
2022-08-21T16:12:34.919Z,18.86
2022-08-21T16:15:04.167Z,18.69
2022-08-21T16:17:33.344Z,18.61
2022-08-21T16:20:03.207Z,18.60
2022-08-21T16:22:41.283Z,18.48
2022-08-21T16:25:13.141Z,18.41
2022-08-21T16:27:41.764Z,18.41
2022-08-21T16:30:12.056Z,18.42
2022-08-21T16:32:40.078Z,18.45
2022-08-21T16:35:13.696Z,18.48
2022-08-21T16:37:41.777Z,18.47
2022-08-21T16:40:10.645Z,18.47
2022-08-21T16:42:39.274Z,18.44
2022-08-21T16:45:07.799Z,18.47
2022-08-21T16:47:35.788Z,18.43
2022-08-21T16:50:03.774Z,18.40
2022-08-21T16:52:33.141Z,18.36
2022-08-21T16:55:00.960Z,18.34
2022-08-21T16:57:29.158Z,18.46
2022-08-21T16:59:57.102Z,18.38
2022-08-21T17:02:29.551Z,18.31
2022-08-21T17:04:57.514Z,18.33
2022-08-21T17:07:26.006Z,18.28
2022-08-21T17:09:55.270Z,18.29
2022-08-21T17:12:23.583Z,18.27
2022-08-21T17:14:51.678Z,18.24
2022-08-21T17:17:20.077Z,18.25
2022-08-21T17:19:48.090Z,18.20
2022-08-21T17:22:15.980Z,18.14
2022-08-21T17:24:43.912Z,18.14
2022-08-21T17:27:13.405Z,18.14
2022-08-21T17:29:42.347Z,18.12
2022-08-21T17:32:11.425Z,18.11
2022-08-21T17:34:40.850Z,18.13
2022-08-21T17:37:08.715Z,18.11
2022-08-21T17:39:37.817Z,18.16
2022-08-21T17:42:07.945Z,18.12
2022-08-21T17:44:38.879Z,18.12
2022-08-21T17:47:08.099Z,18.07
2022-08-21T17:49:36.270Z,18.02
2022-08-21T17:52:04.428Z,18.02
2022-08-21T17:54:32.407Z,17.95
2022-08-21T17:57:01.189Z,17.91
2022-08-21T17:59:29.269Z,17.98
2022-08-21T18:02:01.677Z,18.00
2022-08-21T18:04:31.916Z,17.96
2022-08-21T18:06:59.836Z,18.01
2022-08-21T18:09:28.551Z,17.91
2022-08-21T18:11:57.264Z,17.82
2022-08-21T18:14:28.883Z,17.82
2022-08-21T18:16:58.504Z,17.77
2022-08-21T18:19:27.475Z,17.72
2022-08-21T18:21:55.948Z,17.67
2022-08-21T18:24:24.800Z,17.60
2022-08-21T18:26:53.843Z,17.60
2022-08-21T18:29:23.482Z,17.62
2022-08-21T18:31:52.596Z,17.61
2022-08-21T18:34:24.768Z,17.57
2022-08-21T18:36:53.234Z,17.61
2022-08-21T18:39:38.375Z,17.61
2022-08-21T18:42:09.525Z,17.54
2022-08-21T18:44:38.410Z,17.50
2022-08-21T18:47:07.892Z,17.45
2022-08-21T18:49:37.165Z,17.36
2022-08-21T18:52:05.761Z,17.37
2022-08-21T18:54:33.842Z,17.32
2022-08-21T18:57:05.605Z,17.36
2022-08-21T18:59:36.933Z,17.30
2022-08-21T19:02:08.159Z,17.24
2022-08-21T19:04:44.343Z,17.22
2022-08-21T19:07:13.920Z,17.17
2022-08-21T19:09:42.589Z,17.15
2022-08-21T19:12:14.688Z,17.08
2022-08-21T19:14:42.928Z,17.08
2022-08-21T19:17:10.982Z,17.09
2022-08-21T19:19:40.730Z,17.02
2022-08-21T19:22:10.842Z,17.00
2022-08-21T19:24:39.432Z,16.99
2022-08-21T19:27:07.874Z,17.02
2022-08-21T19:29:36.690Z,16.97
2022-08-21T19:32:06.056Z,16.90
2022-08-21T19:34:34.939Z,16.92
2022-08-21T19:37:06.459Z,16.83
2022-08-21T19:39:42.377Z,16.85
2022-08-21T19:42:14.863Z,16.83
2022-08-21T19:44:43.087Z,16.84
2022-08-21T19:47:12.003Z,16.85
2022-08-21T19:49:50.191Z,16.82
2022-08-21T19:52:19.777Z,16.74
2022-08-21T19:54:48.585Z,16.70
2022-08-21T19:57:17.691Z,16.68
2022-08-21T19:59:45.971Z,16.71
2022-08-21T20:02:15.084Z,16.67
2022-08-21T20:04:53.538Z,16.68
2022-08-21T20:10:12.292Z,16.65
2022-08-21T20:12:41.088Z,16.68
2022-08-21T20:15:09.438Z,16.70
2022-08-21T20:17:38.818Z,16.68
2022-08-21T20:20:07.233Z,16.73
2022-08-21T20:22:36.887Z,16.78
2022-08-21T20:25:05.136Z,16.76
2022-08-21T20:27:36.402Z,16.79
2022-08-21T20:30:09.311Z,16.78
2022-08-21T20:32:37.433Z,16.79
2022-08-21T20:35:05.706Z,16.77
2022-08-21T20:37:42.518Z,16.71
2022-08-21T20:43:00.120Z,16.76
2022-08-21T20:45:29.397Z,16.81
2022-08-21T20:48:00.504Z,16.77
2022-08-21T20:50:29.377Z,16.81
2022-08-21T20:53:02.095Z,16.74
2022-08-21T20:55:30.725Z,16.77
2022-08-21T20:58:03.054Z,16.85
2022-08-21T21:00:34.050Z,16.75
2022-08-21T21:03:06.412Z,16.72
2022-08-21T21:08:14.024Z,16.75
2022-08-21T21:10:48.401Z,16.71
2022-08-21T21:13:22.658Z,16.80
2022-08-21T21:15:55.396Z,16.73
2022-08-21T21:18:31.230Z,16.76
2022-08-21T21:21:05.152Z,16.80
2022-08-21T21:23:41.501Z,16.77
2022-08-21T21:26:19.344Z,16.78
2022-08-21T21:28:53.920Z,16.80
2022-08-21T21:31:22.297Z,16.82
2022-08-21T21:33:50.798Z,16.82
2022-08-21T21:36:30.240Z,16.91
2022-08-21T21:39:09.534Z,16.91
2022-08-21T21:41:46.049Z,16.87
2022-08-21T21:44:33.891Z,16.92
2022-08-21T21:47:08.538Z,16.97
2022-08-21T21:50:05.162Z,16.94
2022-08-21T21:52:54.793Z,16.92
2022-08-21T21:55:41.820Z,16.89
2022-08-21T21:58:36.458Z,16.84
2022-08-21T22:01:13.075Z,16.90
2022-08-21T22:03:52.696Z,16.85
2022-08-21T22:06:36.796Z,16.82
2022-08-21T22:09:17.365Z,16.85
2022-08-21T22:12:08.790Z,16.78
2022-08-21T22:14:40.981Z,16.77
2022-08-21T22:17:30.459Z,16.73
2022-08-21T22:20:04.878Z,16.74
2022-08-21T22:22:35.293Z,16.75
2022-08-21T22:25:07.157Z,16.75
2022-08-21T22:27:40.986Z,16.77
2022-08-21T22:30:15.408Z,16.72
2022-08-21T22:32:50.457Z,16.73
2022-08-21T22:35:22.217Z,16.72
2022-08-21T22:37:53.375Z,16.73
2022-08-21T22:40:26.554Z,16.73
2022-08-21T22:43:03.331Z,16.71
2022-08-21T22:46:00.728Z,16.73
2022-08-21T22:48:32.424Z,16.65
2022-08-21T22:51:05.840Z,16.67
2022-08-21T22:53:36.558Z,16.69
2022-08-21T22:56:07.768Z,16.65
2022-08-21T22:58:40.882Z,16.64
2022-08-21T23:01:18.244Z,16.66
2022-08-21T23:03:49.976Z,16.72
2022-08-21T23:06:27.646Z,16.65
2022-08-21T23:08:55.983Z,16.69
2022-08-21T23:11:28.674Z,16.67
2022-08-21T23:13:58.179Z,16.70
2022-08-21T23:16:38.798Z,16.66
2022-08-21T23:19:23.836Z,16.69
2022-08-21T23:22:00.654Z,16.73
2022-08-21T23:24:49.816Z,16.66
2022-08-21T23:27:36.073Z,16.60
2022-08-21T23:30:10.035Z,16.59
2022-08-21T23:33:00.985Z,16.58
2022-08-21T23:35:48.285Z,16.57
2022-08-21T23:38:33.077Z,16.55
2022-08-21T23:41:12.220Z,16.57
2022-08-21T23:43:52.796Z,16.56
2022-08-21T23:46:43.070Z,16.53
2022-08-21T23:49:25.677Z,16.56
2022-08-21T23:52:00.528Z,16.56
2022-08-21T23:54:48.096Z,16.63
2022-08-21T23:57:33.668Z,16.64
